Time;durP1;ratioP1;P1;durP2;ratioP2;P2;SDS_P1;SDS_P2;PMS_P1;PMS_P2;Temp;Humidity;BMP_temperature;BMP_pressure;BME280_temperature;BME280_humidity;BME280_pressure;Samples;Min_cycle;Max_cycle;Signal;HPM_P1;HPM_P2
2024/02/06 06:15:58;;;;;;;1.00;0.80;;;;;;;-0.21;100.00;97575.26;103135;1285;600810;-30
2024/02/06 06:18:26;;;;;;;1.00;0.80;;;;;;;0.65;100.00;97576.70;104839;1266;61178;-31
2024/02/06 06:20:54;;;;;;;2.30;0.90;;;;;;;1.81;100.00;97575.24;104853;1266;63221;-30
2024/02/06 06:23:22;;;;;;;1.70;1.10;;;;;;;2.36;100.00;97556.48;104874;1266;72671;-29
2024/02/06 06:25:50;;;;;;;1.20;0.80;;;;;;;2.52;100.00;97541.13;104785;1271;73180;-28
2024/02/06 06:28:18;;;;;;;1.00;0.90;;;;;;;2.37;100.00;97534.00;104862;1266;71467;-29
2024/02/06 06:30:46;;;;;;;1.30;1.00;;;;;;;2.16;99.95;97538.88;104722;1266;203079;-28
2024/02/06 06:33:14;;;;;;;0.70;0.60;;;;;;;2.00;99.58;97545.84;104893;1263;61077;-28
2024/02/06 06:35:42;;;;;;;0.60;0.60;;;;;;;2.60;98.28;97544.52;104878;1263;72531;-28
2024/02/06 06:38:10;;;;;;;1.60;0.90;;;;;;;3.24;95.06;97545.63;105012;1268;73239;-26
2024/02/06 06:40:38;;;;;;;0.70;0.70;;;;;;;3.44;92.78;97541.65;105036;1262;72604;-27
2024/02/06 06:46:13;;;;;;;2.10;1.30;;;;;;;2.95;91.76;97527.92;103625;1280;615499;-28
2024/02/06 06:48:40;;;;;;;1.50;1.30;;;;;;;2.64;91.92;97532.92;104886;1267;60963;-29
2024/02/06 06:53:31;;;;;;;1.80;1.20;;;;;;;2.63;93.02;97525.75;104007;1277;614404;-28
2024/02/06 06:55:58;;;;;;;1.30;1.00;;;;;;;3.02;90.75;97523.98;105065;1267;61305;-28
2024/02/06 06:58:25;;;;;;;1.00;0.80;;;;;;;2.91;90.16;97520.34;105065;1267;61187;-27
2024/02/06 07:00:53;;;;;;;4.70;2.80;;;;;;;2.75;90.96;97511.00;105053;1270;73920;-28
2024/02/06 07:03:21;;;;;;;3.10;1.80;;;;;;;2.54;91.77;97512.36;104865;1267;76015;-29
2024/02/06 07:05:52;;;;;;;3.60;1.30;;;;;;;2.90;92.40;97522.79;104905;1269;219386;-28
2024/02/06 07:08:19;;;;;;;3.20;1.30;;;;;;;3.34;91.19;97519.32;105237;1265;62292;-27
2024/02/06 07:10:47;;;;;;;2.10;1.40;;;;;;;3.29;90.74;97521.82;105241;1266;62036;-27
2024/02/06 07:13:14;;;;;;;1.80;1.10;;;;;;;3.08;90.50;97509.96;104866;1270;72012;-27
2024/02/06 07:15:41;;;;;;;1.90;1.10;;;;;;;2.81;91.45;97506.27;105074;1264;74239;-27
2024/02/06 07:18:08;;;;;;;3.10;2.50;;;;;;;2.50;91.52;97502.77;105066;1270;72432;-27
2024/02/06 07:23:49;;;;;;;5.80;3.60;;;;;;;2.86;92.52;97509.87;103553;1280;614328;-28
2024/02/06 07:28:25;;;;;;;8.70;4.60;;;;;;;3.13;89.40;97511.15;103521;1280;615186;-27
2024/02/06 07:30:53;;;;;;;7.40;4.50;;;;;;;2.80;89.81;97505.91;105072;1265;61117;-30
2024/02/06 07:33:20;;;;;;;6.20;4.50;;;;;;;2.55;89.65;97509.36;104786;1272;61106;-29
2024/02/06 07:35:48;;;;;;;5.90;3.80;;;;;;;2.13;90.44;97518.20;105085;1269;72084;-28
2024/02/06 07:38:15;;;;;;;7.50;3.80;;;;;;;2.06;92.32;97522.66;104862;1266;74394;-26
2024/02/06 07:40:43;;;;;;;9.30;3.60;;;;;;;2.81;91.30;97521.89;105082;1265;184355;-27
2024/02/06 07:43:11;;;;;;;4.30;3.40;;;;;;;3.09;89.40;97525.29;105288;1265;61061;-26
2024/02/06 07:45:39;;;;;;;6.30;3.90;;;;;;;3.00;89.06;97523.79;105199;1262;61054;-26
2024/02/06 07:48:07;;;;;;;5.30;3.50;;;;;;;2.84;89.56;97524.77;105258;1264;72234;-27
2024/02/06 07:50:35;;;;;;;5.20;3.60;;;;;;;2.66;90.44;97529.88;105305;1265;73085;-26
2024/02/06 07:53:02;;;;;;;4.00;2.50;;;;;;;2.45;91.40;97524.17;105234;1264;73267;-26
2024/02/06 07:55:29;;;;;;;6.00;3.80;;;;;;;2.81;91.95;97523.48;105087;1265;61147;-26
2024/02/06 07:57:56;;;;;;;6.00;4.10;;;;;;;3.28;90.24;97519.77;105157;1266;61231;-25
2024/02/06 08:00:24;;;;;;;7.50;5.00;;;;;;;3.27;89.26;97516.65;105626;1257;73484;-25
2024/02/06 08:02:51;;;;;;;7.70;5.20;;;;;;;3.05;89.43;97511.70;105555;1261;74213;-25
2024/02/06 08:05:18;;;;;;;8.80;6.20;;;;;;;2.80;90.47;97509.09;105407;1261;72379;-25
2024/02/06 08:07:46;;;;;;;7.50;4.70;;;;;;;2.56;91.93;97509.52;105461;1263;61191;-26
2024/02/06 08:10:14;;;;;;;6.70;4.60;;;;;;;2.72;92.77;97508.34;105473;1257;61262;-26
2024/02/06 08:12:42;;;;;;;7.20;4.30;;;;;;;3.06;90.83;97508.05;105381;1263;73721;-26
2024/02/06 08:15:10;;;;;;;6.30;3.80;;;;;;;3.14;90.25;97512.79;105416;1263;74120;-26
2024/02/06 08:17:40;;;;;;;8.20;4.50;;;;;;;2.98;91.59;97510.39;105542;1260;72363;-26
2024/02/06 08:20:09;;;;;;;6.60;4.40;;;;;;;2.93;93.21;97514.70;105299;1258;61058;-26
2024/02/06 08:22:38;;;;;;;4.30;3.10;;;;;;;2.82;95.04;97513.09;105321;1263;61778;-26
2024/02/06 08:25:09;;;;;;;6.50;3.20;;;;;;;3.31;95.06;97516.11;105401;1263;73038;-25
2024/02/06 09:01:53;;;;;;;10.20;4.70;;;;;;;4.78;100.00;97530.30;103522;1280;615539;-25
2024/02/06 09:04:21;;;;;;;4.20;2.50;;;;;;;5.71;100.00;97520.09;104882;1267;62199;-24
2024/02/06 09:06:48;;;;;;;3.30;2.70;;;;;;;6.28;99.99;97510.05;105071;1265;61956;-23
2024/02/06 09:09:15;;;;;;;4.50;2.90;;;;;;;6.44;98.12;97497.08;105107;1267;73476;-23
2024/02/06 09:11:43;;;;;;;7.60;2.90;;;;;;;6.38;98.25;97507.69;105087;1267;76026;-24
2024/02/06 09:14:11;;;;;;;10.50;2.60;;;;;;;6.42;97.29;97506.56;104960;1263;211704;-25
2024/02/06 09:16:38;;;;;;;3.50;2.10;;;;;;;6.70;95.37;97504.95;105237;1263;62014;-24
2024/02/06 09:19:08;;;;;;;4.60;2.10;;;;;;;6.68;94.33;97503.79;105214;1266;61744;-24
2024/02/06 09:21:36;;;;;;;4.50;2.50;;;;;;;6.53;94.83;97506.29;105154;1264;73992;-24
2024/02/06 09:24:04;;;;;;;5.80;3.40;;;;;;;6.54;95.43;97515.38;105114;1264;76128;-24
2024/02/06 09:26:31;;;;;;;4.00;2.80;;;;;;;6.66;94.79;97513.95;105163;1263;74483;-24
2024/02/06 09:28:58;;;;;;;7.70;3.00;;;;;;;6.69;94.79;97524.58;105068;1263;61345;-25
2024/02/06 09:31:26;;;;;;;8.30;2.00;;;;;;;6.49;95.53;97518.07;105062;1264;61948;-25
2024/02/06 09:33:53;;;;;;;5.60;2.20;;;;;;;6.67;94.74;97515.64;105248;1263;74714;-25
2024/02/06 09:36:22;;;;;;;5.50;2.20;;;;;;;6.84;93.40;97520.48;105168;1263;76010;-25
2024/02/06 09:38:50;;;;;;;4.70;2.60;;;;;;;6.81;92.98;97510.55;105235;1263;74429;-25
2024/02/06 09:41:18;;;;;;;3.80;2.00;;;;;;;6.64;93.93;97513.60;105222;1262;61073;-25
2024/02/06 09:43:45;;;;;;;5.70;2.00;;;;;;;6.75;94.74;97506.29;105044;1263;62323;-26
2024/02/06 09:46:12;;;;;;;4.40;2.40;;;;;;;7.05;92.49;97510.70;104832;1263;72948;-25
2024/02/06 09:48:40;;;;;;;4.50;1.70;;;;;;;6.94;91.77;97490.42;105152;1266;76228;-24
2024/02/06 09:51:07;;;;;;;4.60;2.10;;;;;;;6.82;92.76;97501.99;105228;1262;74332;-24
2024/02/06 09:53:35;;;;;;;5.20;1.90;;;;;;;6.77;93.00;97479.89;104812;1263;63643;-24
2024/02/06 09:56:02;;;;;;;6.20;1.90;;;;;;;6.96;93.25;97491.40;105161;1264;61154;-24
2024/02/06 09:58:30;;;;;;;3.20;1.90;;;;;;;7.18;91.96;97478.61;105066;1264;74435;-24
2024/02/06 10:00:57;;;;;;;3.00;1.50;;;;;;;7.14;91.91;97480.14;105176;1264;75929;-24
2024/02/06 10:03:32;;;;;;;2.50;1.30;;;;;;;6.97;91.56;97466.33;104779;1266;74594;-24
2024/02/06 10:05:59;;;;;;;4.50;1.40;;;;;;;7.13;91.11;97450.41;104824;1264;62353;-24
2024/02/06 10:08:27;;;;;;;5.20;1.80;;;;;;;7.24;91.79;97472.45;104924;1269;62043;-25
2024/02/06 10:10:56;;;;;;;3.20;1.60;;;;;;;7.13;92.37;97467.00;105107;1267;75030;-25
2024/02/06 10:13:23;;;;;;;3.00;1.40;;;;;;;6.97;93.78;97476.19;104758;1272;75799;-25
2024/02/06 10:15:51;;;;;;;3.20;1.30;;;;;;;7.28;92.61;97473.98;104892;1263;74197;-26
2024/02/06 10:18:18;;;;;;;5.30;1.40;;;;;;;7.51;91.04;97480.52;104798;1263;61173;-25
2024/02/06 10:20:49;;;;;;;2.60;1.70;;;;;;;7.39;90.47;97441.77;104969;1267;61887;-26
2024/02/06 10:23:18;;;;;;;3.20;1.30;;;;;;;7.04;91.80;97451.08;105072;1264;74919;-24
2024/02/06 10:25:46;;;;;;;2.80;1.40;;;;;;;7.11;93.93;97465.77;104903;1263;74216;-25
2024/02/06 10:28:23;;;;;;;2.90;1.80;;;;;;;7.20;92.96;97456.85;104928;1264;72623;-25
2024/02/06 10:30:51;;;;;;;3.70;1.40;;;;;;;7.15;93.95;97483.46;104863;1272;61151;-25
2024/02/06 10:33:19;;;;;;;2.50;1.20;;;;;;;7.01;94.84;97489.62;104973;1269;62232;-25
2024/02/06 10:35:47;;;;;;;2.40;1.20;;;;;;;7.09;95.48;97495.97;104889;1263;74750;-25
2024/02/06 10:38:16;;;;;;;3.00;1.50;;;;;;;7.34;93.07;97481.91;104850;1272;75002;-25
2024/02/06 10:40:44;;;;;;;4.00;1.70;;;;;;;7.42;92.64;97465.19;104945;1264;74437;-25
2024/02/06 10:43:13;;;;;;;2.40;1.40;;;;;;;7.02;93.84;97455.59;104477;1272;61139;-25
2024/02/06 10:46:01;;;;;;;1.80;1.20;;;;;;;7.00;93.79;97476.73;104644;1269;62066;-26
2024/02/06 10:48:29;;;;;;;2.80;1.40;;;;;;;7.36;92.99;97486.38;105226;1257;74441;-25
2024/02/06 10:50:58;;;;;;;4.00;1.30;;;;;;;7.47;91.72;97482.63;105273;1257;76273;-26
2024/02/06 10:53:26;;;;;;;3.70;1.30;;;;;;;7.34;92.36;97480.75;105105;1257;74418;-25
2024/02/06 10:56:04;;;;;;;2.10;1.20;;;;;;;7.06;93.35;97475.38;105503;1257;63645;-26
2024/02/06 10:58:39;;;;;;;4.70;1.70;;;;;;;7.35;91.83;97475.13;105112;1257;62051;-26
2024/02/06 11:01:10;;;;;;;2.00;1.50;;;;;;;7.37;91.63;97469.71;105113;1257;74933;-27
2024/02/06 11:03:53;;;;;;;2.40;1.20;;;;;;;7.22;92.44;97482.52;105224;1257;75810;-26
2024/02/06 11:06:26;;;;;;;3.50;1.50;;;;;;;7.34;92.04;97489.02;105240;1260;74241;-27
2024/02/06 11:09:00;;;;;;;4.30;1.20;;;;;;;7.53;89.46;97462.52;105424;1263;61186;-28
2024/02/06 11:11:27;;;;;;;2.00;1.20;;;;;;;7.51;89.98;97485.88;105343;1258;61642;-27
2024/02/06 11:13:56;;;;;;;3.20;1.30;;;;;;;7.42;89.88;97470.30;105607;1257;74852;-27
2024/02/06 11:16:24;;;;;;;1.40;1.20;;;;;;;7.35;91.14;97480.66;105594;1261;76209;-27
2024/02/06 11:19:20;;;;;;;1.90;1.20;;;;;;;7.56;89.65;97475.89;105394;1257;74523;-28
2024/02/06 11:21:51;;;;;;;3.10;1.50;;;;;;;7.44;90.54;97476.87;105380;1260;62277;-28
2024/02/06 11:24:18;;;;;;;2.90;1.50;;;;;;;7.30;90.81;97482.29;105361;1257;61065;-28
2024/02/06 11:26:45;;;;;;;2.10;1.40;;;;;;;7.33;91.94;97497.34;105587;1257;74397;-28
2024/02/06 11:29:12;;;;;;;3.40;1.60;;;;;;;7.61;89.69;97468.37;105573;1257;76277;-28
2024/02/06 11:31:40;;;;;;;2.40;1.60;;;;;;;7.52;89.31;97477.69;105143;1257;74495;-28
2024/02/06 11:34:14;;;;;;;2.40;1.60;;;;;;;7.39;90.31;97477.33;105465;1257;61904;-28
2024/02/06 11:36:42;;;;;;;4.10;1.50;;;;;;;7.35;91.01;97492.21;105287;1257;62276;-27
2024/02/06 11:39:12;;;;;;;2.50;1.90;;;;;;;7.65;89.65;97499.24;105341;1257;74907;-27
2024/02/06 11:41:40;;;;;;;5.60;2.10;;;;;;;7.66;89.05;97491.64;105272;1258;74825;-26
2024/02/06 11:44:12;;;;;;;5.70;1.60;;;;;;;7.47;89.29;97473.85;105508;1259;73316;-27
2024/02/06 11:46:49;;;;;;;3.80;1.80;;;;;;;7.43;90.34;97492.83;105285;1264;62156;-27
2024/02/06 11:49:23;;;;;;;2.90;2.00;;;;;;;7.65;88.22;97477.55;105199;1257;61640;-27
2024/02/06 11:51:55;;;;;;;2.40;1.80;;;;;;;7.70;87.10;97478.25;105422;1257;74831;-27
2024/02/06 11:54:24;;;;;;;3.00;2.00;;;;;;;7.59;87.74;97489.27;105240;1257;76031;-27
2024/02/06 11:56:51;;;;;;;4.40;2.00;;;;;;;7.37;88.28;97493.58;105450;1260;73239;-27
2024/02/06 11:59:19;;;;;;;3.00;1.60;;;;;;;7.46;88.08;97489.48;105307;1263;61273;-27
2024/02/06 12:01:46;;;;;;;4.50;2.00;;;;;;;7.74;86.46;97486.90;105615;1260;61930;-27
2024/02/06 12:04:23;;;;;;;2.80;2.00;;;;;;;7.71;85.85;97484.52;105465;1257;74912;-27
2024/02/06 12:06:51;;;;;;;5.40;2.10;;;;;;;7.72;85.90;97493.63;105331;1257;76071;-27
2024/02/06 12:09:20;;;;;;;3.40;1.80;;;;;;;7.51;86.91;97492.58;105546;1257;74339;-27
2024/02/06 12:11:48;;;;;;;5.40;2.00;;;;;;;7.69;86.61;97487.65;105633;1260;61182;-27
2024/02/06 12:14:15;;;;;;;3.00;2.00;;;;;;;7.79;85.62;97483.95;105432;1257;61794;-27
2024/02/06 12:16:44;;;;;;;5.30;2.20;;;;;;;7.78;85.11;97483.68;105495;1257;74587;-27
2024/02/06 12:19:12;;;;;;;5.60;2.20;;;;;;;7.60;85.13;97483.84;105517;1257;75770;-27
2024/02/06 12:21:40;;;;;;;3.20;1.70;;;;;;;7.51;85.87;97490.24;105432;1257;74531;-27
2024/02/06 12:24:08;;;;;;;7.30;2.10;;;;;;;7.70;85.20;97495.90;105555;1256;62283;-27
2024/02/06 12:26:36;;;;;;;4.10;2.30;;;;;;;7.93;83.68;97481.98;105494;1257;61566;-27
2024/02/06 12:29:05;;;;;;;6.90;2.50;;;;;;;7.83;83.19;97473.73;105503;1257;74651;-27
2024/02/06 12:31:37;;;;;;;2.90;2.10;;;;;;;7.78;83.47;97480.63;105392;1265;76068;-27
2024/02/06 12:34:05;;;;;;;5.80;2.00;;;;;;;7.70;83.88;97473.61;105302;1257;72928;-27
2024/02/06 12:36:34;;;;;;;2.90;1.50;;;;;;;7.87;83.03;97484.48;105538;1263;62216;-27
2024/02/06 12:39:12;;;;;;;3.60;2.20;;;;;;;8.13;81.45;97466.91;105582;1262;61196;-27
2024/02/06 12:41:40;;;;;;;5.20;2.40;;;;;;;8.07;81.46;97478.61;105663;1260;74980;-27
2024/02/06 12:44:08;;;;;;;3.10;2.00;;;;;;;8.01;81.78;97478.95;105636;1257;76159;-28
2024/02/06 12:46:42;;;;;;;3.70;1.40;;;;;;;7.82;82.33;97485.92;105503;1260;74302;-28
2024/02/06 12:49:09;;;;;;;4.70;1.90;;;;;;;8.00;81.74;97486.30;105162;1257;61688;-29
2024/02/06 12:51:37;;;;;;;3.20;1.50;;;;;;;8.10;80.74;97479.33;105348;1260;61674;-28
2024/02/06 12:54:05;;;;;;;9.20;2.50;;;;;;;8.11;80.64;97483.88;105459;1257;74572;-28
2024/02/06 12:56:34;;;;;;;5.80;2.40;;;;;;;7.95;81.58;97485.95;105215;1263;76268;-28
2024/02/06 12:59:02;;;;;;;4.40;1.80;;;;;;;7.63;82.93;97473.06;105515;1256;74348;-28
2024/02/06 13:01:47;;;;;;;4.60;1.90;;;;;;;7.76;82.89;97487.02;105157;1257;62079;-28
2024/02/06 13:04:25;;;;;;;7.00;2.20;;;;;;;8.00;82.11;97492.33;105194;1262;61959;-28
2024/02/06 13:06:53;;;;;;;3.20;1.90;;;;;;;7.99;81.51;97482.08;105512;1257;72933;-28
2024/02/06 13:09:30;;;;;;;2.80;2.10;;;;;;;7.81;81.75;97482.71;105326;1257;75231;-28
2024/02/06 13:11:57;;;;;;;5.80;1.70;;;;;;;7.61;82.92;97486.83;105363;1265;74226;-28
2024/02/06 13:14:25;;;;;;;2.10;1.40;;;;;;;7.75;82.21;97479.91;105553;1260;62004;-27
2024/02/06 13:16:52;;;;;;;2.70;1.60;;;;;;;7.97;80.79;97463.75;105462;1263;62126;-28
2024/02/06 13:19:28;;;;;;;3.90;2.20;;;;;;;7.95;80.90;97470.89;105386;1257;75628;-28
2024/02/06 13:21:56;;;;;;;3.20;2.00;;;;;;;7.74;82.08;97479.04;105614;1260;76449;-28
2024/02/06 13:24:24;;;;;;;3.30;1.50;;;;;;;7.63;82.68;97482.03;105331;1257;74175;-28
2024/02/06 13:26:52;;;;;;;4.10;1.80;;;;;;;7.78;82.29;97476.77;105184;1262;61192;-28
2024/02/06 13:29:19;;;;;;;5.00;2.20;;;;;;;8.00;81.08;97479.19;105310;1260;61854;-28
2024/02/06 13:31:47;;;;;;;3.70;2.10;;;;;;;8.04;80.43;97483.32;105243;1261;74547;-28
2024/02/06 13:34:14;;;;;;;3.60;1.70;;;;;;;8.01;80.85;97498.48;105612;1257;75892;-28
2024/02/06 13:36:42;;;;;;;2.70;1.90;;;;;;;7.87;81.66;97491.91;105401;1257;74337;-28
2024/02/06 13:39:12;;;;;;;5.40;1.80;;;;;;;7.86;82.29;97496.92;105258;1258;64515;-31
2024/02/06 13:41:40;;;;;;;2.00;1.30;;;;;;;8.22;80.86;97496.02;105268;1259;61750;-28
2024/02/06 13:44:07;;;;;;;2.70;1.50;;;;;;;8.27;80.81;97501.23;105235;1257;75500;-28
2024/02/06 13:46:35;;;;;;;3.70;2.20;;;;;;;8.18;81.26;97498.75;105284;1258;76168;-28
2024/02/06 13:49:03;;;;;;;13.10;2.60;;;;;;;7.92;81.97;97492.71;105574;1258;74044;-28
2024/02/06 13:51:31;;;;;;;4.70;1.90;;;;;;;7.78;83.33;97504.77;105434;1257;63891;-28
2024/02/06 13:54:00;;;;;;;2.90;2.00;;;;;;;8.01;82.92;97497.65;105321;1260;61154;-28
2024/02/06 13:56:27;;;;;;;2.90;2.00;;;;;;;8.23;82.18;97507.61;105177;1263;74360;-28
2024/02/06 13:58:54;;;;;;;6.40;2.00;;;;;;;8.16;82.05;97499.30;105357;1260;76006;-28
2024/02/06 14:01:24;;;;;;;5.90;2.30;;;;;;;7.95;83.16;97498.56;105330;1257;74207;-28
2024/02/06 14:03:51;;;;;;;10.00;1.60;;;;;;;7.77;84.28;97501.06;105337;1257;61985;-28
2024/02/06 14:06:19;;;;;;;4.00;1.80;;;;;;;7.92;84.06;97495.90;105554;1257;61515;-28
2024/02/06 14:08:47;;;;;;;6.20;1.90;;;;;;;8.11;82.78;97493.08;105364;1262;75636;-28
2024/02/06 14:11:15;;;;;;;3.30;1.70;;;;;;;8.17;82.31;97490.08;105617;1260;76431;-28
2024/02/06 14:13:42;;;;;;;4.70;1.90;;;;;;;7.96;82.57;97488.95;105243;1265;73226;-28
2024/02/06 14:16:10;;;;;;;5.80;1.70;;;;;;;7.72;83.04;97484.95;105166;1260;62045;-28
2024/02/06 14:18:38;;;;;;;4.40;2.50;;;;;;;7.63;84.16;97498.77;105323;1263;62173;-28
2024/02/06 14:21:05;;;;;;;2.70;1.70;;;;;;;7.97;82.79;97491.74;105483;1257;75413;-28
2024/02/06 14:23:34;;;;;;;3.70;2.30;;;;;;;8.03;81.98;97492.11;105184;1257;76048;-28
2024/02/06 14:26:04;;;;;;;4.10;2.10;;;;;;;8.01;81.68;97494.83;105229;1261;74296;-28
2024/02/06 14:28:31;;;;;;;3.50;2.30;;;;;;;7.77;82.80;97493.81;105312;1260;62145;-28
2024/02/06 14:30:59;;;;;;;3.40;1.20;;;;;;;7.64;83.13;97494.54;105199;1262;62141;-28
2024/02/06 14:33:27;;;;;;;6.30;2.50;;;;;;;7.96;81.88;97493.96;105345;1257;74844;-28
2024/02/06 14:35:54;;;;;;;3.70;1.60;;;;;;;8.24;80.53;97498.73;105294;1257;75030;-28
2024/02/06 14:38:22;;;;;;;6.10;1.90;;;;;;;8.08;80.48;97491.43;105551;1254;74303;-28
2024/02/06 14:40:50;;;;;;;4.40;1.60;;;;;;;7.97;80.27;97494.85;105795;1254;61886;-28
2024/02/06 14:43:18;;;;;;;3.60;1.40;;;;;;;7.80;81.03;97500.27;105637;1256;61657;-28
2024/02/06 14:45:46;;;;;;;2.30;1.50;;;;;;;7.79;81.62;97510.88;105335;1254;75497;-28
2024/02/06 14:55:53;;;;;;;4.40;2.00;;;;;;;7.85;80.09;97499.66;102706;1292;599599;-26
2024/02/06 14:58:21;;;;;;;5.10;2.10;;;;;;;7.62;81.27;97506.27;105242;1264;61193;-25
2024/02/06 15:00:49;;;;;;;3.30;1.90;;;;;;;7.71;81.39;97511.16;105216;1265;61390;-26
2024/02/06 15:03:17;;;;;;;3.30;1.80;;;;;;;8.10;78.94;97492.23;105300;1265;75045;-26
2024/02/06 15:05:44;;;;;;;4.40;2.10;;;;;;;8.23;78.47;97510.78;105210;1262;77165;-26
2024/02/06 15:08:12;;;;;;;3.30;1.70;;;;;;;8.06;78.50;97500.74;105235;1259;74302;-27
2024/02/06 15:10:40;;;;;;;2.90;1.70;;;;;;;7.87;79.17;97505.98;105239;1258;215677;-26
2024/02/06 15:13:08;;;;;;;3.10;1.60;;;;;;;7.70;79.79;97502.74;105514;1257;61897;-26
2024/02/06 15:15:36;;;;;;;2.00;1.20;;;;;;;7.71;79.90;97505.14;105464;1264;75373;-26
2024/02/06 15:18:05;;;;;;;2.60;1.30;;;;;;;8.07;78.36;97500.14;105413;1263;76112;-26
2024/02/06 15:20:34;;;;;;;3.40;1.20;;;;;;;8.21;77.32;97499.69;105234;1266;74555;-26
2024/02/06 15:23:03;;;;;;;3.30;1.20;;;;;;;8.11;77.22;97502.02;105441;1259;61496;-27
2024/02/06 15:25:31;;;;;;;3.40;2.10;;;;;;;7.98;77.83;97504.00;105443;1263;62859;-26
2024/02/06 15:27:59;;;;;;;6.20;1.80;;;;;;;7.89;78.21;97507.39;105420;1259;75846;-26
2024/02/06 15:30:28;;;;;;;3.70;1.00;;;;;;;7.84;78.50;97505.14;105346;1259;76775;-26
2024/02/06 15:32:55;;;;;;;8.20;2.50;;;;;;;8.22;76.97;97510.88;105368;1259;73932;-26
2024/02/06 15:35:24;;;;;;;2.30;1.40;;;;;;;8.31;76.38;97505.19;105394;1259;61892;-26
2024/02/06 15:37:52;;;;;;;4.20;2.30;;;;;;;8.14;76.84;97505.39;105463;1259;61785;-26
2024/02/06 15:40:20;;;;;;;6.60;2.20;;;;;;;8.02;77.67;97508.80;105290;1259;74241;-26
2024/02/06 15:42:48;;;;;;;5.10;1.80;;;;;;;7.93;78.34;97505.86;105304;1263;77226;-26
2024/02/06 15:45:16;;;;;;;4.20;1.70;;;;;;;7.80;78.98;97513.27;105189;1265;74426;-26
2024/02/06 15:47:44;;;;;;;3.30;1.60;;;;;;;8.09;77.62;97501.58;105318;1259;62552;-27
2024/02/06 15:50:12;;;;;;;3.20;2.00;;;;;;;8.27;76.75;97508.10;105169;1259;61755;-26
2024/02/06 15:52:43;;;;;;;4.10;2.00;;;;;;;8.15;76.98;97513.70;105248;1261;75769;-26
2024/02/06 15:55:12;;;;;;;2.90;1.80;;;;;;;7.94;77.59;97516.08;105297;1259;77189;-27
2024/02/06 15:57:40;;;;;;;6.10;2.00;;;;;;;7.72;78.04;97507.23;105342;1265;75620;-26
2024/02/06 16:00:09;;;;;;;2.40;1.30;;;;;;;7.59;78.59;97516.95;105418;1258;62685;-26
2024/02/06 16:02:40;;;;;;;2.70;1.30;;;;;;;7.94;76.84;97504.16;105273;1263;61356;-27
2024/02/06 16:05:08;;;;;;;3.70;1.80;;;;;;;8.15;76.06;97513.95;105464;1263;75705;-27
2024/02/06 16:07:36;;;;;;;2.60;1.30;;;;;;;7.94;75.44;97493.46;105336;1264;77130;-27
2024/02/06 16:10:06;;;;;;;4.30;1.60;;;;;;;7.86;75.32;97498.86;105312;1258;74377;-26
2024/02/06 16:12:34;;;;;;;2.40;1.80;;;;;;;7.67;75.81;97507.37;105204;1266;61860;-26
2024/02/06 16:15:16;;;;;;;2.40;1.70;;;;;;;7.53;76.08;97504.13;105289;1258;61833;-27
2024/02/06 16:17:44;;;;;;;5.00;2.00;;;;;;;7.86;75.07;97504.94;105236;1262;75628;-27
2024/02/06 16:20:12;;;;;;;4.80;1.70;;;;;;;8.10;73.54;97509.18;105212;1263;75532;-27
2024/02/06 16:22:40;;;;;;;3.00;1.40;;;;;;;8.11;72.80;97490.95;105080;1259;74633;-27
2024/02/06 16:25:08;;;;;;;7.70;2.00;;;;;;;7.97;72.56;97498.33;105172;1264;61176;-27
2024/02/06 16:27:36;;;;;;;6.60;1.70;;;;;;;7.96;72.70;97502.27;105174;1259;61809;-27
2024/02/06 16:30:05;;;;;;;3.20;1.40;;;;;;;7.84;72.94;97504.23;105197;1257;75606;-27
2024/02/06 16:32:33;;;;;;;5.60;1.50;;;;;;;7.65;73.52;97504.07;105191;1265;76785;-26
2024/02/06 16:35:01;;;;;;;4.30;1.60;;;;;;;7.90;72.48;97492.30;105140;1263;75400;-26
2024/02/06 16:37:39;;;;;;;5.10;1.50;;;;;;;8.18;70.91;97490.88;105258;1258;61499;-27
2024/02/06 16:40:09;;;;;;;3.80;1.10;;;;;;;8.18;70.62;97492.91;105258;1259;61130;-27
2024/02/06 16:42:37;;;;;;;4.30;1.70;;;;;;;8.09;70.27;97485.83;105288;1265;75717;-27
2024/02/06 16:45:11;;;;;;;6.30;2.00;;;;;;;7.86;71.07;97489.52;105325;1258;77200;-27
2024/02/06 16:47:39;;;;;;;2.20;1.40;;;;;;;7.66;72.13;97491.90;105313;1259;74376;-26
2024/02/06 16:50:08;;;;;;;4.40;1.90;;;;;;;7.64;72.11;97493.02;105156;1258;61107;-26
2024/02/06 16:52:36;;;;;;;3.10;1.00;;;;;;;7.65;72.18;97487.74;105347;1263;62444;-27
2024/02/06 16:55:05;;;;;;;2.60;1.40;;;;;;;8.02;70.71;97491.18;105351;1260;75814;-26
2024/02/06 16:57:33;;;;;;;4.60;1.20;;;;;;;8.06;70.26;97487.52;105402;1257;77185;-26
2024/02/06 17:00:03;;;;;;;3.40;1.70;;;;;;;7.97;70.25;97488.70;105331;1265;75401;-26
2024/02/06 17:02:31;;;;;;;6.00;2.30;;;;;;;7.84;70.83;97489.55;105111;1259;62812;-26
2024/02/06 17:04:59;;;;;;;2.80;1.50;;;;;;;7.75;71.07;97486.42;105092;1264;62464;-26
2024/02/06 17:07:28;;;;;;;3.00;1.60;;;;;;;7.73;71.28;97496.45;105373;1263;74459;-26
2024/02/06 17:09:57;;;;;;;4.80;1.80;;;;;;;7.55;71.99;97497.29;105332;1264;76501;-26
2024/02/06 17:12:27;;;;;;;2.20;1.30;;;;;;;7.80;71.22;97489.60;105305;1259;75490;-26
2024/02/06 17:14:55;;;;;;;2.10;0.80;;;;;;;8.01;69.91;97489.70;105298;1258;61534;-26
2024/02/06 17:17:23;;;;;;;2.30;1.40;;;;;;;8.01;70.11;97493.79;105198;1259;61684;-26
2024/02/06 17:19:52;;;;;;;3.40;1.60;;;;;;;7.88;70.43;97494.52;105231;1260;75800;-26
2024/02/06 17:22:20;;;;;;;3.90;1.50;;;;;;;7.79;70.91;97500.05;105408;1260;76778;-26
2024/02/06 17:24:48;;;;;;;2.80;1.70;;;;;;;7.54;71.44;97489.77;105311;1263;74545;-26
2024/02/06 17:27:16;;;;;;;3.20;1.60;;;;;;;7.47;71.58;97484.15;105337;1260;62060;-26
2024/02/06 17:29:45;;;;;;;3.10;2.00;;;;;;;7.37;72.45;97503.92;105332;1265;61192;-26
2024/02/06 17:32:12;;;;;;;3.80;1.10;;;;;;;7.61;71.86;97497.19;105394;1265;73921;-26
2024/02/06 17:34:44;;;;;;;3.60;1.70;;;;;;;7.95;70.23;97500.98;105368;1259;76366;-26
2024/02/06 17:37:12;;;;;;;6.70;1.60;;;;;;;7.93;70.13;97483.58;105255;1260;73784;-26
2024/02/06 17:39:40;;;;;;;2.80;1.50;;;;;;;7.77;70.36;97464.81;105318;1264;61442;-26
2024/02/06 17:42:08;;;;;;;2.50;1.40;;;;;;;7.69;70.34;97465.45;105344;1259;61762;-26
2024/02/06 17:44:36;;;;;;;5.10;1.80;;;;;;;7.76;70.20;97472.16;105391;1259;74298;-27
2024/02/06 17:47:04;;;;;;;6.60;2.00;;;;;;;7.61;70.57;97470.61;105316;1265;75100;-26
2024/02/06 17:49:33;;;;;;;2.60;1.60;;;;;;;7.39;71.16;97464.95;105367;1262;75105;-26
2024/02/06 17:52:01;;;;;;;3.40;1.60;;;;;;;7.46;71.14;97468.40;105197;1260;62547;-26
2024/02/06 17:54:29;;;;;;;2.70;1.70;;;;;;;7.80;69.70;97442.46;105345;1264;61138;-26
2024/02/06 17:56:57;;;;;;;3.00;1.50;;;;;;;7.79;69.07;97452.88;105216;1258;74240;-26
2024/02/06 17:59:25;;;;;;;2.60;1.40;;;;;;;7.74;69.32;97453.67;105302;1259;76207;-26
2024/02/06 18:01:53;;;;;;;3.50;1.40;;;;;;;7.57;69.88;97460.17;105352;1265;75455;-26
2024/02/06 18:04:21;;;;;;;1.30;1.00;;;;;;;7.43;70.34;97461.40;105454;1262;61498;-26
2024/02/06 18:06:50;;;;;;;4.10;1.40;;;;;;;7.34;70.44;97451.39;105401;1265;62954;-26
2024/02/06 18:09:19;;;;;;;2.00;1.40;;;;;;;7.23;71.10;97460.71;105325;1260;75760;-26
2024/02/06 18:11:47;;;;;;;1.60;0.80;;;;;;;7.56;70.37;97460.41;105253;1260;77119;-26
2024/02/06 18:14:15;;;;;;;4.90;1.40;;;;;;;7.75;68.97;97455.64;105212;1258;75538;-26
2024/02/06 18:19:30;;;;;;;4.10;1.20;;;;;;;7.75;68.68;97456.05;105327;1260;61774;-26
2024/02/06 18:21:58;;;;;;;2.90;1.30;;;;;;;7.59;69.14;97468.60;105173;1264;75800;-26
2024/02/06 18:24:26;;;;;;;2.00;1.30;;;;;;;7.42;69.84;97470.69;105163;1260;77141;-26
2024/02/06 18:26:54;;;;;;;2.30;1.50;;;;;;;7.28;70.49;97466.45;105432;1262;75993;-26
2024/02/06 18:29:22;;;;;;;1.30;0.90;;;;;;;7.10;71.26;97474.48;105243;1260;62067;-26
2024/02/06 18:31:50;;;;;;;2.60;1.50;;;;;;;7.43;70.28;97457.42;105204;1260;62850;-26
2024/02/06 18:34:19;;;;;;;2.40;1.40;;;;;;;7.77;68.84;97470.69;105329;1260;75734;-26
2024/02/06 18:36:48;;;;;;;1.50;1.00;;;;;;;7.82;68.60;97471.41;105394;1260;77171;-27
2024/02/06 18:39:18;;;;;;;2.40;1.20;;;;;;;7.76;68.62;97463.02;105126;1260;74046;-26
2024/02/06 18:41:46;;;;;;;2.60;1.40;;;;;;;7.67;68.84;97464.20;105265;1265;61683;-26
2024/02/06 18:44:15;;;;;;;2.90;1.70;;;;;;;7.58;69.42;97466.27;105347;1260;61802;-26
2024/02/06 18:46:46;;;;;;;3.30;1.40;;;;;;;7.44;70.00;97470.30;105261;1265;76194;-26
2024/02/06 18:49:14;;;;;;;3.30;1.10;;;;;;;7.34;70.77;97473.66;105267;1257;77206;-27